createdAt,value
2023-05-14T00:00:14.406Z,101763.72
2023-05-14T00:01:15.967Z,101760.13
2023-05-14T00:02:17.494Z,101757.41
2023-05-14T00:03:19.110Z,101767.34
2023-05-14T00:04:20.724Z,101764.66
2023-05-14T00:05:22.598Z,101764.63
2023-05-14T00:06:24.090Z,101769.19
2023-05-14T00:07:30.659Z,101762.84
2023-05-14T00:08:32.376Z,101760.09
2023-05-14T00:09:35.234Z,101754.66
2023-05-14T00:10:36.722Z,101759.22
2023-05-14T00:11:38.143Z,101767.34
2023-05-14T00:12:39.581Z,101757.38
2023-05-14T00:13:41.055Z,101755.56
2023-05-14T00:14:42.489Z,101758.28
2023-05-14T00:15:44.452Z,101759.19
2023-05-14T00:16:45.793Z,101761.00
2023-05-14T00:17:47.244Z,101763.72
2023-05-14T00:18:51.849Z,101754.66
2023-05-14T00:19:53.299Z,101752.84
2023-05-14T00:20:54.938Z,101756.47
2023-05-14T00:21:56.418Z,101752.84
2023-05-14T00:22:57.826Z,101753.75
2023-05-14T00:23:59.398Z,101751.00
2023-05-14T00:25:00.870Z,101754.66
2023-05-14T00:26:02.388Z,101753.78
2023-05-14T00:27:04.085Z,101754.66
2023-05-14T00:28:05.499Z,101748.31
2023-05-14T00:29:07.089Z,101751.03
2023-05-14T00:30:08.798Z,101748.31
2023-05-14T00:31:10.209Z,101745.59
2023-05-14T00:32:11.641Z,101734.72
2023-05-14T00:33:13.132Z,101738.34
2023-05-14T00:34:14.523Z,101741.06
2023-05-14T00:35:16.184Z,101743.78
2023-05-14T00:36:17.652Z,101732.00
2023-05-14T00:37:19.062Z,101740.16
2023-05-14T00:38:20.566Z,101736.53
2023-05-14T00:39:21.946Z,101729.25
2023-05-14T00:40:27.651Z,101739.25
2023-05-14T00:41:29.050Z,101741.06
2023-05-14T00:42:30.650Z,101733.78
2023-05-14T00:43:33.200Z,101738.34
2023-05-14T00:44:35.436Z,101741.06
2023-05-14T00:45:37.016Z,101736.53
2023-05-14T00:46:38.631Z,101735.59
2023-05-14T00:47:40.617Z,101741.06
2023-05-14T00:48:42.168Z,101741.06
2023-05-14T00:49:43.880Z,101731.09
2023-05-14T00:50:45.705Z,101737.44
2023-05-14T00:51:47.251Z,101731.06
2023-05-14T00:52:49.425Z,101734.72
2023-05-14T00:53:51.007Z,101734.72
2023-05-14T00:54:52.561Z,101734.72
2023-05-14T00:55:54.191Z,101728.34
2023-05-14T00:56:56.170Z,101734.72
2023-05-14T00:57:58.023Z,101736.53
2023-05-14T00:58:59.704Z,101725.66
2023-05-14T01:00:01.222Z,101738.34
2023-05-14T01:01:03.146Z,101728.38
2023-05-14T01:02:04.696Z,101727.44
2023-05-14T01:03:07.643Z,101731.09
2023-05-14T01:04:11.633Z,101732.91
2023-05-14T01:05:13.122Z,101723.84
2023-05-14T01:06:40.812Z,101725.66
2023-05-14T01:07:47.970Z,101734.72
2023-05-14T01:09:20.188Z,101731.06
2023-05-14T01:10:45.314Z,101724.72
2023-05-14T01:12:00.897Z,101729.25
2023-05-14T01:13:06.551Z,101732.00
2023-05-14T01:14:34.147Z,101726.53
2023-05-14T01:15:38.085Z,101725.59
2023-05-14T01:16:40.501Z,101725.63
2023-05-14T01:17:48.724Z,101729.25
2023-05-14T01:18:52.565Z,101728.31
2023-05-14T01:19:55.535Z,101725.59
2023-05-14T01:20:57.007Z,101721.00
2023-05-14T01:21:58.392Z,101720.13
2023-05-14T01:22:59.782Z,101726.44
2023-05-14T01:24:01.216Z,101727.34
2023-05-14T01:25:02.776Z,101725.56
2023-05-14T01:26:04.410Z,101731.00
2023-05-14T01:27:34.812Z,101730.06
2023-05-14T01:28:37.513Z,101725.50
2023-05-14T01:29:43.325Z,101721.91
2023-05-14T01:31:19.577Z,101729.13
2023-05-14T01:32:24.492Z,101720.06
2023-05-14T01:33:29.196Z,101719.16
2023-05-14T01:34:31.292Z,101720.97
2023-05-14T01:35:36.121Z,101725.50
2023-05-14T01:36:38.938Z,101723.69
2023-05-14T01:37:41.701Z,101727.28
2023-05-14T01:38:45.701Z,101727.28
2023-05-14T01:39:48.410Z,101726.38
2023-05-14T01:40:50.810Z,101731.78
2023-05-14T01:41:53.257Z,101718.19
2023-05-14T01:42:55.304Z,101716.38
2023-05-14T01:43:57.371Z,101712.75
2023-05-14T01:44:59.502Z,101718.19
2023-05-14T01:46:01.002Z,101717.28
2023-05-14T01:47:02.562Z,101720.00
2023-05-14T01:48:07.023Z,101706.41
2023-05-14T01:49:08.488Z,101711.88
2023-05-14T01:50:10.547Z,101716.38
2023-05-14T01:51:14.524Z,101710.06
2023-05-14T01:52:16.009Z,101711.84
2023-05-14T01:53:17.467Z,101714.56
2023-05-14T01:54:18.878Z,101718.19
2023-05-14T01:55:24.461Z,101711.88
2023-05-14T01:56:26.080Z,101712.81
2023-05-14T01:57:27.516Z,101713.72
2023-05-14T01:58:28.980Z,101707.38
2023-05-14T01:59:30.487Z,101713.72
2023-05-14T02:00:32.060Z,101709.19
2023-05-14T02:01:33.913Z,101713.72
2023-05-14T02:02:35.541Z,101711.91
2023-05-14T02:03:37.116Z,101716.47
2023-05-14T02:04:38.608Z,101711.03
2023-05-14T02:05:40.069Z,101709.25
2023-05-14T02:06:41.587Z,101704.72
2023-05-14T02:07:42.987Z,101711.94
2023-05-14T02:08:44.391Z,101706.56
2023-05-14T02:09:45.877Z,101709.28
2023-05-14T02:10:47.296Z,101701.13
2023-05-14T02:11:48.678Z,101701.13
2023-05-14T02:12:50.153Z,101703.84
2023-05-14T02:13:51.660Z,101702.97
2023-05-14T02:14:53.069Z,101691.16
2023-05-14T02:15:54.556Z,101706.56
2023-05-14T02:16:56.272Z,101696.59
2023-05-14T02:17:57.739Z,101699.31
2023-05-14T02:18:59.197Z,101703.88
2023-05-14T02:20:00.723Z,101693.00
2023-05-14T02:21:02.492Z,101695.72
2023-05-14T02:22:03.977Z,101699.34
2023-05-14T02:23:05.572Z,101698.44
2023-05-14T02:24:07.113Z,101702.06
2023-05-14T02:25:09.240Z,101701.13
2023-05-14T02:26:11.133Z,101701.13
2023-05-14T02:27:13.290Z,101691.16
2023-05-14T02:28:14.696Z,101685.75
2023-05-14T02:29:16.167Z,101702.94
2023-05-14T02:30:17.745Z,101689.38
2023-05-14T02:31:19.476Z,101692.97
2023-05-14T02:32:21.080Z,101693.91
2023-05-14T02:33:22.633Z,101686.63
2023-05-14T02:34:24.931Z,101693.00
2023-05-14T02:35:26.340Z,101691.16
2023-05-14T02:36:27.816Z,101693.88
2023-05-14T02:37:29.240Z,101689.34
2023-05-14T02:38:30.612Z,101697.50
2023-05-14T02:39:32.044Z,101692.09
2023-05-14T02:40:33.425Z,101692.06
2023-05-14T02:41:34.895Z,101693.88
2023-05-14T02:42:36.333Z,101685.72
2023-05-14T02:43:37.709Z,101687.56
2023-05-14T02:44:39.166Z,101698.44
2023-05-14T02:45:40.555Z,101687.53
2023-05-14T02:46:42.791Z,101692.09
2023-05-14T02:47:44.322Z,101691.19
2023-05-14T02:48:45.916Z,101690.28
2023-05-14T02:49:47.310Z,101686.66
2023-05-14T02:50:51.042Z,101691.19
2023-05-14T02:51:54.257Z,101691.19
2023-05-14T02:52:55.686Z,101701.16
2023-05-14T02:53:57.090Z,101701.16
2023-05-14T02:54:58.482Z,101697.53
2023-05-14T02:55:59.933Z,101695.72
2023-05-14T02:57:01.437Z,101694.78
2023-05-14T02:58:02.924Z,101699.34
2023-05-14T02:59:04.408Z,101705.69
2023-05-14T03:00:06.596Z,101698.44
2023-05-14T03:01:08.774Z,101698.44
2023-05-14T03:02:10.847Z,101702.06
2023-05-14T03:03:12.959Z,101704.78
2023-05-14T03:04:14.760Z,101691.16
2023-05-14T03:05:16.173Z,101686.66
2023-05-14T03:06:17.588Z,101690.28
2023-05-14T03:07:18.995Z,101694.81
2023-05-14T03:08:20.548Z,101691.16
2023-05-14T03:09:21.976Z,101696.63
2023-05-14T03:10:23.592Z,101694.78
2023-05-14T03:11:25.429Z,101708.41
2023-05-14T03:12:27.017Z,101697.53
2023-05-14T03:13:28.501Z,101703.88
2023-05-14T03:14:29.919Z,101699.31
2023-05-14T03:15:31.348Z,101698.41
2023-05-14T03:16:32.828Z,101694.81
2023-05-14T03:17:34.484Z,101698.44
2023-05-14T03:18:36.625Z,101691.16
2023-05-14T03:19:38.154Z,101702.03
2023-05-14T03:20:39.683Z,101693.88
2023-05-14T03:21:41.172Z,101691.16
2023-05-14T03:22:42.755Z,101694.78
2023-05-14T03:23:44.301Z,101702.94
2023-05-14T03:24:45.782Z,101699.31
2023-05-14T03:25:47.184Z,101701.13
2023-05-14T03:26:48.567Z,101699.31
2023-05-14T03:27:49.977Z,101702.94
2023-05-14T03:28:51.381Z,101693.84
2023-05-14T03:29:52.795Z,101697.50
2023-05-14T03:30:54.494Z,101700.22
2023-05-14T03:31:56.089Z,101699.28
2023-05-14T03:32:57.701Z,101703.84
2023-05-14T03:33:59.221Z,101697.50
2023-05-14T03:35:00.664Z,101691.13
2023-05-14T03:36:02.093Z,101695.66
2023-05-14T03:37:03.663Z,101706.53
2023-05-14T03:38:05.188Z,101692.91
2023-05-14T03:39:09.889Z,101693.84
2023-05-14T03:40:11.662Z,101696.56
2023-05-14T03:41:13.072Z,101693.81
2023-05-14T03:42:14.482Z,101692.94
2023-05-14T03:43:16.381Z,101694.75
2023-05-14T03:44:17.871Z,101696.50
2023-05-14T03:45:19.515Z,101690.16
2023-05-14T03:46:20.988Z,101691.06
2023-05-14T03:47:22.444Z,101688.31
2023-05-14T03:48:23.934Z,101687.44
2023-05-14T03:49:25.408Z,101692.88
2023-05-14T03:50:26.867Z,101687.41
2023-05-14T03:51:28.257Z,101687.44
2023-05-14T03:52:29.687Z,101692.88
2023-05-14T03:53:31.142Z,101697.44
2023-05-14T03:54:32.593Z,101686.53
2023-05-14T03:55:34.020Z,101696.53
2023-05-14T03:56:35.619Z,101692.94
2023-05-14T03:57:37.068Z,101684.75
2023-05-14T03:58:38.548Z,101700.19
2023-05-14T03:59:39.972Z,101688.41
2023-05-14T04:00:42.634Z,101684.78
2023-05-14T04:01:44.594Z,101688.41
2023-05-14T04:02:46.037Z,101694.78
2023-05-14T04:03:47.789Z,101687.53
2023-05-14T04:04:49.353Z,101687.53
2023-05-14T04:05:51.507Z,101693.91
2023-05-14T04:06:52.978Z,101686.63
2023-05-14T04:07:54.407Z,101694.78
2023-05-14T04:08:55.835Z,101689.34
2023-05-14T04:09:57.274Z,101693.91
2023-05-14T04:10:58.683Z,101679.41
2023-05-14T04:12:00.192Z,101689.34
2023-05-14T04:13:01.634Z,101693.00
2023-05-14T04:14:03.134Z,101693.00
2023-05-14T04:15:05.422Z,101690.28
2023-05-14T04:16:07.014Z,101686.63
2023-05-14T04:17:08.436Z,101681.19
2023-05-14T04:18:09.901Z,101689.38
2023-05-14T04:19:11.584Z,101688.47
2023-05-14T04:20:13.133Z,101684.84
2023-05-14T04:21:14.824Z,101687.53
2023-05-14T04:22:16.194Z,101689.38
2023-05-14T04:23:17.598Z,101683.91
2023-05-14T04:24:19.030Z,101678.47
2023-05-14T04:25:20.722Z,101682.13
2023-05-14T04:26:22.156Z,101683.91
2023-05-14T04:27:23.611Z,101671.22
2023-05-14T04:28:25.119Z,101682.09
2023-05-14T04:29:27.698Z,101676.66
2023-05-14T04:30:29.690Z,101678.47
2023-05-14T04:31:31.595Z,101680.28
2023-05-14T04:32:33.076Z,101666.69
2023-05-14T04:33:34.517Z,101679.38
2023-05-14T04:34:36.247Z,101671.19
2023-05-14T04:35:37.768Z,101672.06
2023-05-14T04:36:40.061Z,101671.13
2023-05-14T04:37:41.593Z,101676.56
2023-05-14T04:38:43.011Z,101672.88
2023-05-14T04:39:44.565Z,101673.78
2023-05-14T04:40:48.552Z,101666.47
2023-05-14T04:41:49.950Z,101663.72
2023-05-14T04:42:51.423Z,101663.66
2023-05-14T04:43:56.391Z,101668.09
2023-05-14T04:44:58.655Z,101659.91
2023-05-14T04:46:00.620Z,101665.31
2023-05-14T04:47:02.657Z,101666.22
2023-05-14T04:48:04.704Z,101658.84
2023-05-14T04:49:06.167Z,101662.41
2023-05-14T04:50:09.711Z,101654.91
2023-05-14T04:51:11.177Z,101660.91
2023-05-14T04:52:12.697Z,101655.19
2023-05-14T04:53:14.129Z,101653.03
2023-05-14T04:54:15.559Z,101651.81
2023-05-14T04:55:17.088Z,101645.94
2023-05-14T04:56:18.503Z,101644.69
2023-05-14T04:57:19.994Z,101649.78
2023-05-14T04:58:23.166Z,101646.69
2023-05-14T04:59:24.576Z,101642.78
2023-05-14T05:00:26.334Z,101651.06
2023-05-14T05:01:28.032Z,101654.50
2023-05-14T05:02:29.464Z,101638.91
2023-05-14T05:03:31.188Z,101650.72
2023-05-14T05:04:32.602Z,101652.66
2023-05-14T05:05:35.096Z,101643.75
2023-05-14T05:06:36.550Z,101650.34
2023-05-14T05:07:37.982Z,101642.44
2023-05-14T05:08:39.792Z,101647.00
2023-05-14T05:09:41.211Z,101658.94
2023-05-14T05:10:42.651Z,101649.19
2023-05-14T05:11:44.325Z,101654.72
2023-05-14T05:12:45.818Z,101654.09
2023-05-14T05:13:47.225Z,101645.06
2023-05-14T05:14:48.634Z,101647.81
2023-05-14T05:15:50.089Z,101643.41
2023-05-14T05:16:51.512Z,101652.72
2023-05-14T05:17:53.025Z,101651.03
2023-05-14T05:18:54.573Z,101647.69
2023-05-14T05:19:56.078Z,101645.97
2023-05-14T05:20:57.747Z,101660.56
2023-05-14T05:21:59.242Z,101650.69
2023-05-14T05:23:00.769Z,101657.09
2023-05-14T05:24:02.356Z,101656.06
2023-05-14T05:25:06.314Z,101644.19
2023-05-14T05:26:07.773Z,101649.53
2023-05-14T05:27:09.165Z,101647.66
2023-05-14T05:28:10.615Z,101643.91
2023-05-14T05:29:12.019Z,101647.47
2023-05-14T05:30:13.500Z,101645.56
2023-05-14T05:31:15.464Z,101645.53
2023-05-14T05:32:17.998Z,101634.44
2023-05-14T05:33:19.761Z,101637.94
2023-05-14T05:34:21.351Z,101634.25
2023-05-14T05:35:22.981Z,101641.41
2023-05-14T05:36:24.430Z,101631.41
2023-05-14T05:37:25.871Z,101635.03
2023-05-14T05:38:27.279Z,101644.97
2023-05-14T05:39:34.553Z,101636.75
2023-05-14T05:40:36.094Z,101636.59
2023-05-14T05:41:37.492Z,101629.25
2023-05-14T05:42:38.865Z,101635.53
2023-05-14T05:43:40.333Z,101629.97
2023-05-14T05:44:41.747Z,101634.41
2023-05-14T05:45:45.997Z,101634.41
2023-05-14T05:46:47.493Z,101637.09
2023-05-14T05:47:48.964Z,101629.78
2023-05-14T05:48:50.491Z,101631.53
2023-05-14T05:49:51.867Z,101631.44
2023-05-14T05:50:53.304Z,101628.50
2023-05-14T05:51:54.832Z,101631.25
2023-05-14T05:52:56.297Z,101627.63
2023-05-14T05:53:57.704Z,101630.31
2023-05-14T05:54:59.106Z,101631.28
2023-05-14T05:56:00.528Z,101632.00
2023-05-14T05:57:01.953Z,101630.91
2023-05-14T05:58:03.350Z,101631.69
2023-05-14T05:59:04.776Z,101631.63
2023-05-14T06:00:13.128Z,101627.94
2023-05-14T06:01:14.654Z,101630.56
2023-05-14T06:02:16.097Z,101628.94
2023-05-14T06:03:17.644Z,101622.59
2023-05-14T06:04:19.083Z,101628.69
2023-05-14T06:05:23.809Z,101623.06
2023-05-14T06:06:25.388Z,101622.00
2023-05-14T06:07:26.813Z,101626.41
2023-05-14T06:08:28.227Z,101622.63
2023-05-14T06:09:29.664Z,101623.63
2023-05-14T06:10:31.220Z,101622.53
2023-05-14T06:11:32.840Z,101624.06
2023-05-14T06:12:34.299Z,101621.25
2023-05-14T06:13:35.995Z,101621.16
2023-05-14T06:14:37.393Z,101620.34
2023-05-14T06:15:41.741Z,101614.69
2023-05-14T06:16:43.167Z,101624.75
2023-05-14T06:17:44.639Z,101621.94
2023-05-14T06:18:46.475Z,101615.66
2023-05-14T06:19:47.893Z,101613.84
2023-05-14T06:20:49.309Z,101617.44
2023-05-14T06:21:50.741Z,101610.25
2023-05-14T06:22:52.220Z,101617.56
2023-05-14T06:23:53.622Z,101621.25
2023-05-14T06:24:55.304Z,101620.31
2023-05-14T06:25:56.777Z,101608.34
2023-05-14T06:26:58.191Z,101614.69
2023-05-14T06:27:59.618Z,101614.44
2023-05-14T06:29:01.020Z,101618.69
2023-05-14T06:30:02.540Z,101620.56
2023-05-14T06:31:04.052Z,101621.25
2023-05-14T06:32:05.883Z,101617.44
2023-05-14T06:33:07.310Z,101621.81
2023-05-14T06:34:09.151Z,101617.06
2023-05-14T06:35:10.730Z,101613.31
2023-05-14T06:36:12.176Z,101611.34
2023-05-14T06:37:13.610Z,101610.66
2023-05-14T06:38:15.023Z,101614.91
2023-05-14T06:39:16.419Z,101615.06
2023-05-14T06:40:18.629Z,101614.75
2023-05-14T06:41:20.020Z,101613.75
2023-05-14T06:42:21.442Z,101621.91
2023-05-14T06:43:22.914Z,101624.81
2023-05-14T06:44:24.371Z,101619.09
2023-05-14T06:45:25.786Z,101619.72
2023-05-14T06:46:27.222Z,101613.38
2023-05-14T06:47:28.698Z,101619.66
2023-05-14T06:48:30.992Z,101621.09
2023-05-14T06:49:32.412Z,101608.25
2023-05-14T06:50:33.779Z,101616.13
2023-05-14T06:51:35.217Z,101618.97
2023-05-14T06:52:37.030Z,101616.25
2023-05-14T06:53:39.092Z,101615.91
2023-05-14T06:54:40.589Z,101615.94
2023-05-14T06:55:42.005Z,101613.31
2023-05-14T06:56:43.446Z,101618.38
2023-05-14T06:57:45.051Z,101610.84
2023-05-14T06:58:46.466Z,101618.16
2023-05-14T06:59:47.865Z,101616.16
2023-05-14T07:00:49.284Z,101617.16
2023-05-14T07:01:50.826Z,101613.25
2023-05-14T07:02:52.357Z,101610.41
2023-05-14T07:03:53.915Z,101609.22
2023-05-14T07:04:55.921Z,101606.25
2023-05-14T07:05:57.364Z,101605.91
2023-05-14T07:06:58.879Z,101606.13
2023-05-14T07:08:00.336Z,101609.94
2023-05-14T07:09:02.203Z,101601.28
2023-05-14T07:10:03.816Z,101601.22
2023-05-14T07:11:05.270Z,101604.75
2023-05-14T07:12:07.406Z,101603.75
2023-05-14T07:13:08.837Z,101598.34
2023-05-14T07:14:10.562Z,101596.53
2023-05-14T07:15:12.225Z,101599.84
2023-05-14T07:16:13.688Z,101595.22
2023-05-14T07:17:15.158Z,101599.16
2023-05-14T07:18:16.817Z,101596.81
2023-05-14T07:19:18.301Z,101597.31
2023-05-14T07:20:24.075Z,101596.38
2023-05-14T07:21:26.122Z,101598.75
2023-05-14T07:22:27.537Z,101590.50
2023-05-14T07:23:28.942Z,101595.69
2023-05-14T07:24:30.428Z,101595.59
2023-05-14T07:25:32.650Z,101595.69
2023-05-14T07:26:34.148Z,101602.78
2023-05-14T07:27:35.571Z,101591.22
2023-05-14T07:28:36.984Z,101595.97
2023-05-14T07:29:38.407Z,101591.34
2023-05-14T07:30:39.948Z,101594.63
2023-05-14T07:31:41.407Z,101596.97
2023-05-14T07:32:42.927Z,101590.69
2023-05-14T07:33:44.797Z,101591.84
2023-05-14T07:34:46.324Z,101588.03
2023-05-14T07:35:47.852Z,101582.38
2023-05-14T07:36:49.285Z,101581.38
2023-05-14T07:37:51.577Z,101580.13
2023-05-14T07:38:53.012Z,101574.84
2023-05-14T07:39:54.484Z,101577.22
2023-05-14T07:40:56.085Z,101564.41
2023-05-14T07:41:57.562Z,101575.41
2023-05-14T07:42:58.999Z,101581.59
2023-05-14T07:44:00.471Z,101577.75
2023-05-14T07:45:01.969Z,101567.25
2023-05-14T07:46:03.389Z,101575.41
2023-05-14T07:47:05.095Z,101573.84
2023-05-14T07:48:06.742Z,101567.19
2023-05-14T07:49:08.364Z,101569.53
2023-05-14T07:50:10.412Z,101574.22
2023-05-14T07:51:11.872Z,101565.28
2023-05-14T07:52:13.312Z,101566.09
2023-05-14T07:53:14.828Z,101557.19
2023-05-14T07:54:16.842Z,101562.75
2023-05-14T07:55:18.351Z,101557.81
2023-05-14T07:56:19.947Z,101563.16
2023-05-14T07:57:22.069Z,101561.81
2023-05-14T07:58:24.932Z,101556.81
2023-05-14T07:59:26.357Z,101560.16
2023-05-14T08:00:27.977Z,101552.75
2023-05-14T08:01:29.456Z,101555.31
2023-05-14T08:02:31.039Z,101554.69
2023-05-14T08:03:33.780Z,101553.31
2023-05-14T08:04:36.025Z,101547.84
2023-05-14T08:05:37.566Z,101556.16
2023-05-14T08:06:38.987Z,101550.97
2023-05-14T08:07:41.296Z,101550.78
2023-05-14T08:08:42.716Z,101551.41
2023-05-14T08:09:44.285Z,101552.84
2023-05-14T08:10:45.845Z,101535.09
2023-05-14T08:11:47.346Z,101539.13
2023-05-14T08:12:49.859Z,101540.25
2023-05-14T08:13:51.292Z,101530.56
2023-05-14T08:14:53.199Z,101542.75
2023-05-14T08:15:55.478Z,101539.13
2023-05-14T08:16:56.991Z,101537.69
2023-05-14T08:18:03.259Z,101543.78
2023-05-14T08:19:04.758Z,101538.72
2023-05-14T08:20:07.391Z,101540.69
2023-05-14T08:21:08.832Z,101532.63
2023-05-14T08:22:10.283Z,101530.97
2023-05-14T08:23:11.821Z,101549.63
2023-05-14T08:24:13.303Z,101527.91
2023-05-14T08:25:14.780Z,101539.34
2023-05-14T08:26:16.231Z,101535.94
2023-05-14T08:27:17.609Z,101536.00
2023-05-14T08:28:19.052Z,101524.19
2023-05-14T08:29:20.638Z,101532.91
2023-05-14T08:30:22.951Z,101538.81
2023-05-14T08:31:24.861Z,101536.59
2023-05-14T08:32:26.430Z,101529.47
2023-05-14T08:33:27.867Z,101533.75
2023-05-14T08:34:29.794Z,101529.47
2023-05-14T08:35:31.208Z,101532.09
2023-05-14T08:36:32.868Z,101521.94
2023-05-14T08:37:34.287Z,101522.53
2023-05-14T08:38:35.702Z,101529.59
2023-05-14T08:39:37.096Z,101527.66
2023-05-14T08:40:38.557Z,101526.72
2023-05-14T08:41:40.861Z,101521.59
2023-05-14T08:42:44.952Z,101522.22
2023-05-14T08:44:12.682Z,101522.81
2023-05-14T08:45:20.909Z,101510.25
2023-05-14T08:46:24.828Z,101512.97
2023-05-14T08:47:26.582Z,101514.63
2023-05-14T08:48:32.048Z,101516.28
2023-05-14T08:49:46.264Z,101521.13
2023-05-14T08:50:47.749Z,101524.00
2023-05-14T08:51:49.707Z,101512.75
2023-05-14T08:52:52.028Z,101511.72
2023-05-14T08:53:53.473Z,101511.34
2023-05-14T08:54:55.835Z,101512.00
2023-05-14T08:55:58.079Z,101493.47
2023-05-14T08:56:59.637Z,101497.03
2023-05-14T08:58:01.440Z,101507.50
2023-05-14T08:59:02.819Z,101497.50
2023-05-14T09:00:08.537Z,101494.63
2023-05-14T09:01:09.994Z,101493.09
2023-05-14T09:02:14.969Z,101488.59
2023-05-14T09:03:18.324Z,101489.91
2023-05-14T09:04:22.218Z,101488.09
2023-05-14T09:05:24.135Z,101494.41
2023-05-14T09:06:26.018Z,101488.28
2023-05-14T09:07:27.987Z,101483.78
2023-05-14T09:08:29.656Z,101486.94
2023-05-14T09:09:31.161Z,101489.53
2023-05-14T09:10:32.662Z,101491.06
2023-05-14T09:11:34.067Z,101480.91
2023-05-14T09:12:35.598Z,101480.00
2023-05-14T09:13:39.437Z,101493.84
2023-05-14T09:14:41.252Z,101489.19
2023-05-14T09:15:42.605Z,101487.41
2023-05-14T09:16:49.565Z,101484.63
2023-05-14T09:17:51.198Z,101480.56
2023-05-14T09:18:52.941Z,101485.03
2023-05-14T09:19:54.477Z,101479.16
2023-05-14T09:20:56.044Z,101467.03
2023-05-14T09:21:59.043Z,101478.84
2023-05-14T09:23:01.646Z,101472.47
2023-05-14T09:24:03.854Z,101472.16
2023-05-14T09:25:08.012Z,101470.28
2023-05-14T09:26:09.454Z,101465.50
2023-05-14T09:27:20.309Z,101473.97
2023-05-14T09:28:22.798Z,101459.81
2023-05-14T09:29:26.083Z,101463.81
2023-05-14T09:30:27.627Z,101463.84
2023-05-14T09:31:33.583Z,101466.84
2023-05-14T09:32:40.282Z,101460.53
2023-05-14T09:33:41.889Z,101458.75
2023-05-14T09:34:43.310Z,101463.63
2023-05-14T09:35:44.820Z,101457.94
2023-05-14T09:36:46.220Z,101450.66
2023-05-14T09:37:50.401Z,101457.84
2023-05-14T09:38:51.808Z,101450.81
2023-05-14T09:39:53.237Z,101456.13
2023-05-14T09:40:54.646Z,101447.88
2023-05-14T09:41:56.668Z,101454.69
2023-05-14T09:42:58.196Z,101447.34
2023-05-14T09:44:02.684Z,101451.94
2023-05-14T09:45:05.358Z,101450.44
2023-05-14T09:46:06.847Z,101440.13
2023-05-14T09:47:08.388Z,101432.47
2023-05-14T09:48:10.438Z,101443.47
2023-05-14T09:49:12.159Z,101430.75
2023-05-14T09:50:13.693Z,101437.56
2023-05-14T09:51:17.517Z,101432.78
2023-05-14T09:52:19.803Z,101425.72
2023-05-14T09:53:21.378Z,101433.25
2023-05-14T09:54:23.648Z,101421.06
2023-05-14T09:55:26.035Z,101423.91
2023-05-14T09:56:27.504Z,101417.59
2023-05-14T09:57:29.096Z,101419.44
2023-05-14T09:58:30.590Z,101416.13
2023-05-14T09:59:32.019Z,101428.16
2023-05-14T10:00:34.508Z,101421.72
2023-05-14T10:01:36.700Z,101424.22
2023-05-14T10:02:41.139Z,101413.56
2023-05-14T10:03:43.383Z,101417.69
2023-05-14T10:04:45.437Z,101411.53
2023-05-14T10:05:49.529Z,101410.72
2023-05-14T10:06:53.163Z,101422.78
2023-05-14T10:07:59.078Z,101415.91
2023-05-14T10:09:03.911Z,101425.06
2023-05-14T10:10:08.675Z,101414.66
2023-05-14T10:11:20.744Z,101422.88
2023-05-14T10:12:23.516Z,101412.94
2023-05-14T10:13:36.688Z,101406.97
2023-05-14T10:14:47.298Z,101413.72
2023-05-14T10:16:00.161Z,101411.44
2023-05-14T10:17:03.237Z,101400.78
2023-05-14T10:18:11.213Z,101404.81
2023-05-14T10:19:15.188Z,101403.84
2023-05-14T10:20:17.640Z,101403.00
2023-05-14T10:21:22.306Z,101405.28
2023-05-14T10:22:26.954Z,101405.28
2023-05-14T10:23:28.704Z,101406.81
2023-05-14T10:24:31.177Z,101400.59
2023-05-14T10:25:33.017Z,101403.16
2023-05-14T10:26:38.967Z,101405.59
2023-05-14T10:27:41.295Z,101397.63
2023-05-14T10:28:43.829Z,101401.34
2023-05-14T10:29:54.378Z,101396.03
2023-05-14T10:30:56.045Z,101394.66
2023-05-14T10:31:57.484Z,101392.19
2023-05-14T10:33:09.982Z,101397.94
2023-05-14T10:34:49.446Z,101399.63
2023-05-14T10:36:05.261Z,101397.94
2023-05-14T10:37:11.989Z,101393.75
2023-05-14T10:38:15.213Z,101391.19
2023-05-14T10:39:16.634Z,101391.19
2023-05-14T10:40:19.139Z,101392.63
2023-05-14T10:41:21.521Z,101387.03
2023-05-14T10:42:43.680Z,101392.97
2023-05-14T10:43:45.331Z,101394.38
2023-05-14T10:44:59.618Z,101393.94
2023-05-14T10:46:01.185Z,101389.31
2023-05-14T10:47:03.308Z,101385.84
2023-05-14T10:48:04.996Z,101389.31
2023-05-14T10:49:06.671Z,101380.56
2023-05-14T10:50:10.874Z,101379.75
2023-05-14T10:51:12.785Z,101378.75
2023-05-14T10:52:18.421Z,101382.75
2023-05-14T10:53:21.089Z,101378.28
2023-05-14T10:54:23.350Z,101374.06
2023-05-14T10:55:25.493Z,101381.09
2023-05-14T10:56:26.897Z,101380.94
2023-05-14T10:57:30.812Z,101375.63
2023-05-14T10:58:35.900Z,101377.94
2023-05-14T10:59:37.357Z,101383.06
2023-05-14T11:00:39.229Z,101385.38
2023-05-14T11:01:41.076Z,101383.25
2023-05-14T11:02:44.561Z,101379.38
2023-05-14T11:03:47.122Z,101376.97
2023-05-14T11:05:13.943Z,101374.72
2023-05-14T11:06:16.171Z,101378.91
2023-05-14T11:07:23.693Z,101379.50
2023-05-14T11:08:29.372Z,101372.97
2023-05-14T11:09:31.152Z,101379.75
2023-05-14T11:10:32.733Z,101367.13
2023-05-14T11:11:35.584Z,101363.47
2023-05-14T11:12:42.413Z,101366.59
2023-05-14T11:13:44.958Z,101360.25
2023-05-14T11:14:47.176Z,101365.91
2023-05-14T11:15:49.346Z,101358.94
2023-05-14T11:16:50.980Z,101363.00
2023-05-14T11:17:53.690Z,101361.78
2023-05-14T11:19:03.507Z,101358.88
2023-05-14T11:20:06.553Z,101357.22
2023-05-14T11:21:08.037Z,101343.88
2023-05-14T11:22:09.447Z,101353.75
2023-05-14T11:23:10.975Z,101348.09
2023-05-14T11:24:12.443Z,101356.88
2023-05-14T11:25:15.146Z,101351.00
2023-05-14T11:26:17.928Z,101350.53
2023-05-14T11:27:22.389Z,101356.13
2023-05-14T11:28:26.252Z,101349.50
2023-05-14T11:29:27.740Z,101344.06
2023-05-14T11:30:31.334Z,101349.78
2023-05-14T11:31:32.963Z,101348.66
2023-05-14T11:32:35.112Z,101347.19
2023-05-14T11:33:36.630Z,101332.00
2023-05-14T11:34:38.140Z,101335.94
2023-05-14T11:35:39.648Z,101323.81
2023-05-14T11:36:42.209Z,101330.16
2023-05-14T11:37:49.345Z,101322.97
2023-05-14T11:38:52.175Z,101323.06
2023-05-14T11:39:55.024Z,101328.06
2023-05-14T11:40:58.481Z,101326.09
2023-05-14T11:42:02.690Z,101324.41
2023-05-14T11:43:04.235Z,101316.41
2023-05-14T11:44:07.288Z,101316.03
2023-05-14T11:45:14.404Z,101316.41
2023-05-14T11:46:18.061Z,101313.91
2023-05-14T11:47:21.245Z,101318.72
2023-05-14T11:48:23.993Z,101315.06
2023-05-14T11:49:28.847Z,101316.47
2023-05-14T11:50:30.300Z,101322.59
2023-05-14T11:51:31.953Z,101319.03
2023-05-14T11:52:41.563Z,101316.03
2023-05-14T11:53:43.054Z,101308.69
2023-05-14T11:54:45.254Z,101312.63